KSKA/SKA METAR and TAF weather

Enter ICAO airport designator
Station Type Date Time Source
KSKA METAR 2019/09/21 03:58 UTC NOAA

KSKA 210358Z AUTO 19010KT 10SM OVC090 13/13 A3003 RMK AO2 VIS 2 RWY05/23 SLP172 T01260126 $


Station Type Date Time Source
KSKA Decoded METAR 2019/09/21 03:58 UTC NOAA

Fairchild Air Force Base, WA, United States (KSKA) 47-37N 117-39W
Sep 20, 2019 - 11:58 PM EDT / 2019.09.21 0358 UTC
Wind: from the S (190 degrees) at 12 MPH (10 KT):0
Visibility: 10 mile(s):0
Sky conditions: overcast
Temperature: 54.7 F (12.6 C)
Dew Point: 54.7 F (12.6 C)
Relative Humidity: 100%
Pressure (altimeter): 30.03 in. Hg (1016 hPa)
ob: KSKA 210358Z AUTO 19010KT 10SM OVC090 13/13 A3003 RMK AO2 VIS 2 RWY05/23 SLP172 T01260126
cycle: 4

Station Type Date Time Source
KSKA TAF 2019/09/21 03:11 UTC NOAA

TAF KSKA 210300Z 2103/2209 21006KT 9999 SCT020 SCT060 QNH3001INS
BECMG 2108/2109 VRB06KT 3200 BR SCT020 BKN060 610655 QNH3003INS
BECMG 2117/2118 20009KT 9999 NSW SCT050 QNH3007INS TX19/2200Z TN09/2112Z

Example: see airport list